Time;durP1;ratioP1;P1;durP2;ratioP2;P2;SDS_P1;SDS_P2;PMS_P1;PMS_P2;Temp;Humidity;BMP_temperature;BMP_pressure;BME280_temperature;BME280_humidity;BME280_pressure;Samples;Min_cycle;Max_cycle;Signal;HPM_P1;HPM_P2
2022/06/02 00:02:20;;;;;;;;;;;8.60;99.90;;;;;;5035627;28;19920;-81
2022/06/02 00:04:53;;;;;;;;;;;8.60;99.90;;;;;;5036627;28;19936;-82
2022/06/02 00:07:25;;;;;;;;;;;8.50;99.90;;;;;;5030024;28;19944;-82
2022/06/02 00:10:00;;;;;;;;;;;8.50;99.90;;;;;;5033679;28;19920;-82
2022/06/02 00:12:30;;;;;;;;;;;8.50;99.90;;;;;;5038450;28;20478;-82
2022/06/02 00:15:03;;;;;;;;;;;8.40;99.90;;;;;;5031897;28;19925;-82
2022/06/02 00:17:35;;;;;;;;;;;8.40;99.90;;;;;;5033754;28;19929;-82
2022/06/02 00:20:05;;;;;;;;;;;8.40;99.90;;;;;;5047426;28;19921;-81
2022/06/02 00:22:35;;;;;;;;;;;8.40;99.90;;;;;;5035699;28;19921;-81
2022/06/02 00:25:06;;;;;;;;;;;8.30;99.90;;;;;;5047264;28;19922;-80
2022/06/02 00:27:37;;;;;;;;;;;10.20;99.90;;;;;;5036180;28;19921;-80
2022/06/02 00:30:13;;;;;;;;;;;8.30;99.90;;;;;;5036255;28;19956;-81
2022/06/02 00:32:44;;;;;;;;;;;8.20;99.90;;;;;;5043240;28;19932;-80
2022/06/02 00:35:22;;;;;;;;;;;8.20;99.90;;;;;;5033426;28;19971;-80
2022/06/02 00:37:51;;;;;;;;;;;7.60;99.90;;;;;;5030912;28;20442;-80
2022/06/02 00:40:19;;;;;;;;;;;8.10;99.90;;;;;;5032257;28;20003;-80
2022/06/02 00:46:05;;;;;;;;;;;8.00;99.90;;;;;;5055295;28;19909;-82
2022/06/02 00:48:41;;;;;;;;;;;8.00;99.90;;;;;;5024974;28;19920;-83
2022/06/02 00:51:10;;;;;;;;;;;8.00;99.90;;;;;;5024240;28;19944;-81
2022/06/02 00:53:42;;;;;;;;;;;7.90;99.90;;;;;;5023366;28;19971;-81
2022/06/02 00:59:20;;;;;;;;;;;7.80;99.90;;;;;;5042181;28;19916;-82
2022/06/02 01:01:47;;;;;;;;;;;7.80;99.90;;;;;;5043408;28;19967;-83
2022/06/02 01:04:19;;;;;;;;;;;7.70;99.90;;;;;;5043298;28;20018;-81
2022/06/02 01:07:04;;;;;;;;;;;7.70;99.90;;;;;;5061103;28;19916;-81
2022/06/02 01:09:49;;;;;;;;;;;7.70;99.90;;;;;;5042111;28;20004;-82
2022/06/02 01:12:24;;;;;;;;;;;7.60;99.90;;;;;;5042985;28;19931;-80
2022/06/02 01:14:56;;;;;;;;;;;7.60;99.90;;;;;;5036177;28;19959;-77
2022/06/02 01:17:32;;;;;;;;;;;7.60;99.90;;;;;;5051392;28;20296;-80
2022/06/02 01:20:11;;;;;;;;;;;7.60;99.90;;;;;;5026639;28;19931;-80
2022/06/02 01:22:49;;;;;;;;;;;7.50;99.90;;;;;;5040356;28;19925;-81
2022/06/02 01:25:43;;;;;;;;;;;7.40;99.90;;;;;;5058078;28;19921;-79
2022/06/02 01:28:25;;;;;;;;;;;7.40;99.90;;;;;;4985960;28;19921;-81
2022/06/02 01:30:56;;;;;;;;;;;7.40;99.90;;;;;;5035760;28;19943;-79
2022/06/02 01:33:29;;;;;;;;;;;7.40;99.90;;;;;;5021438;28;19925;-79
2022/06/02 01:35:59;;;;;;;;;;;7.30;99.90;;;;;;5049758;28;19934;-81
2022/06/02 01:38:29;;;;;;;;;;;7.30;99.90;;;;;;5040765;28;19920;-81
2022/06/02 01:41:02;;;;;;;;;;;7.30;99.90;;;;;;5038795;28;19924;-80
2022/06/02 01:43:35;;;;;;;;;;;7.30;99.90;;;;;;5041512;28;19924;-82
2022/06/02 01:46:11;;;;;;;;;;;7.30;99.90;;;;;;5040850;28;19920;-82
2022/06/02 01:48:43;;;;;;;;;;;7.30;99.90;;;;;;5039943;28;19929;-82
2022/06/02 01:51:14;;;;;;;;;;;7.20;99.90;;;;;;5055403;28;19920;-81
2022/06/02 01:53:51;;;;;;;;;;;7.20;99.90;;;;;;5031212;28;19921;-81
2022/06/02 01:56:28;;;;;;;;;;;7.10;99.90;;;;;;5054342;28;19925;-78
2022/06/02 01:59:07;;;;;;;;;;;7.00;99.90;;;;;;5032086;28;19928;-80
2022/06/02 02:01:41;;;;;;;;;;;7.00;99.90;;;;;;5040941;28;19936;-78
2022/06/02 02:04:13;;;;;;;;;;;7.00;99.90;;;;;;5040440;28;20083;-79
2022/06/02 02:06:49;;;;;;;;;;;7.00;99.90;;;;;;5039737;28;19951;-80
2022/06/02 02:09:18;;;;;;;;;;;6.90;99.90;;;;;;5028206;28;19921;-79
2022/06/02 02:11:50;;;;;;;;;;;6.90;99.90;;;;;;5037867;28;19931;-78
2022/06/02 02:14:26;;;;;;;;;;;6.90;99.90;;;;;;5041126;28;19931;-75
2022/06/02 02:17:00;;;;;;;;;;;6.80;99.90;;;;;;5055047;28;19921;-77
2022/06/02 02:19:32;;;;;;;;;;;6.80;99.90;;;;;;5017544;28;19921;-78
2022/06/02 02:22:03;;;;;;;;;;;6.80;99.90;;;;;;5034474;28;19948;-78
2022/06/02 02:24:40;;;;;;;;;;;6.70;99.90;;;;;;5036183;28;20427;-79
2022/06/02 02:27:10;;;;;;;;;;;6.70;99.90;;;;;;5019230;28;19967;-78
2022/06/02 02:29:43;;;;;;;;;;;6.70;99.90;;;;;;5036284;28;19944;-78
2022/06/02 02:32:17;;;;;;;;;;;6.70;99.90;;;;;;5036718;28;19952;-78
2022/06/02 02:34:49;;;;;;;;;;;6.70;99.90;;;;;;5017870;28;19925;-79
2022/06/02 02:37:19;;;;;;;;;;;6.70;99.90;;;;;;5017459;28;19932;-79
2022/06/02 02:39:49;;;;;;;;;;;6.70;99.90;;;;;;5033040;28;20458;-77
2022/06/02 02:42:19;;;;;;;;;;;6.10;99.90;;;;;;5016242;28;19920;-77
2022/06/02 02:44:49;;;;;;;;;;;6.70;99.90;;;;;;5027556;28;19924;-78
2022/06/02 02:47:20;;;;;;;;;;;6.70;99.90;;;;;;5036476;28;20019;-78
2022/06/02 02:49:48;;;;;;;;;;;6.70;99.90;;;;;;5036407;28;19925;-78
2022/06/02 02:52:18;;;;;;;;;;;6.70;99.90;;;;;;5033314;28;19921;-77
2022/06/02 02:54:49;;;;;;;;;;;6.70;99.90;;;;;;5023891;28;19921;-78
2022/06/02 02:57:20;;;;;;;;;;;6.60;99.90;;;;;;5046501;28;19925;-83
2022/06/02 02:59:52;;;;;;;;;;;6.50;99.90;;;;;;5033010;28;19925;-80
2022/06/02 03:02:24;;;;;;;;;;;6.50;99.90;;;;;;5035731;28;19928;-80
2022/06/02 03:04:54;;;;;;;;;;;6.50;99.90;;;;;;5053940;28;19974;-79
2022/06/02 03:07:21;;;;;;;;;;;7.90;99.90;;;;;;5031632;28;19921;-80
2022/06/02 03:09:55;;;;;;;;;;;6.50;99.90;;;;;;5050865;28;19924;-80
2022/06/02 03:12:27;;;;;;;;;;;6.50;99.90;;;;;;5027057;28;19921;-79
2022/06/02 03:15:11;;;;;;;;;;;6.50;99.90;;;;;;5043523;28;19921;-82
2022/06/02 03:17:52;;;;;;;;;;;6.50;99.90;;;;;;5034714;28;19925;-82
2022/06/02 03:20:22;;;;;;;;;;;6.50;99.90;;;;;;5047461;28;20031;-80
2022/06/02 03:23:04;;;;;;;;;;;6.50;99.90;;;;;;5030613;28;19932;-81
2022/06/02 03:25:38;;;;;;;;;;;6.50;99.90;;;;;;5054265;28;20721;-77
2022/06/02 03:28:13;;;;;;;;;;;6.50;99.90;;;;;;5038483;28;19931;-81
2022/06/02 03:30:43;;;;;;;;;;;6.60;99.90;;;;;;5023920;28;20297;-80
2022/06/02 03:33:19;;;;;;;;;;;6.50;99.90;;;;;;5020016;28;19928;-79
2022/06/02 03:35:51;;;;;;;;;;;6.50;99.90;;;;;;5068525;28;20314;-80
2022/06/02 03:38:25;;;;;;;;;;;6.50;99.90;;;;;;5036190;28;19928;-79
2022/06/02 03:41:02;;;;;;;;;;;6.50;99.90;;;;;;5052174;28;19947;-78
2022/06/02 03:43:32;;;;;;;;;;;6.50;99.90;;;;;;5033442;28;20285;-78
2022/06/02 03:46:05;;;;;;;;;;;6.60;99.90;;;;;;5036130;28;20442;-77
2022/06/02 03:48:53;;;;;;;;;;;6.70;99.90;;;;;;5048066;28;19959;-77
2022/06/02 03:51:26;;;;;;;;;;;6.80;99.90;;;;;;5056166;28;20380;-78
2022/06/02 03:54:02;;;;;;;;;;;6.80;99.90;;;;;;5039401;28;19936;-78
2022/06/02 03:56:35;;;;;;;;;;;6.50;99.90;;;;;;5038740;28;20315;-79
2022/06/02 03:59:22;;;;;;;;;;;6.80;99.90;;;;;;5042407;28;19921;-79
2022/06/02 04:01:53;;;;;;;;;;;6.80;99.90;;;;;;5042653;28;19978;-79
2022/06/02 04:04:29;;;;;;;;;;;6.90;99.90;;;;;;5041942;28;19929;-79
2022/06/02 04:07:11;;;;;;;;;;;6.90;99.90;;;;;;5020343;28;19920;-79
2022/06/02 04:09:43;;;;;;;;;;;6.90;99.90;;;;;;5034709;28;19999;-79
2022/06/02 04:15:09;;;;;;;;;;;7.00;99.90;;;;;;5030954;28;19921;-76
2022/06/02 04:17:40;;;;;;;;;;;7.00;99.90;;;;;;5031453;28;19921;-76
2022/06/02 04:23:02;;;;;;;;;;;7.10;99.90;;;;;;5011773;28;20027;-77
2022/06/02 04:25:39;;;;;;;;;;;7.20;99.90;;;;;;5014666;28;20388;-76
2022/06/02 04:28:10;;;;;;;;;;;7.30;99.90;;;;;;5014421;28;19921;-76
2022/06/02 04:30:42;;;;;;;;;;;7.40;99.90;;;;;;5032126;28;20367;-77
2022/06/02 04:33:13;;;;;;;;;;;7.50;99.90;;;;;;5032171;28;19956;-78
2022/06/02 04:35:47;;;;;;;;;;;7.70;99.90;;;;;;5038896;28;19924;-76
2022/06/02 04:38:18;;;;;;;;;;;7.70;99.90;;;;;;5055926;28;19909;-76
2022/06/02 04:40:51;;;;;;;;;;;7.80;99.90;;;;;;5038541;28;20333;-78
2022/06/02 04:43:43;;;;;;;;;;;7.90;99.90;;;;;;5037723;28;19921;-77
2022/06/02 04:46:17;;;;;;;;;;;8.20;99.90;;;;;;5036870;28;19988;-79
2022/06/02 04:51:31;;;;;;;;;;;8.40;99.90;;;;;;5132180;23;19924;-77
2022/06/02 04:54:01;;;;;;;;;;;8.50;99.90;;;;;;5078714;28;19916;-78
2022/06/02 04:56:31;;;;;;;;;;;8.60;99.90;;;;;;5076070;28;19917;-77
2022/06/02 04:59:03;;;;;;;;;;;8.80;99.90;;;;;;5075407;28;19920;-78
2022/06/02 05:01:36;;;;;;;;;;;8.80;99.90;;;;;;5074012;28;19935;-78
2022/06/02 05:04:11;;;;;;;;;;;9.00;99.90;;;;;;5061007;28;19919;-80
2022/06/02 05:06:44;;;;;;;;;;;9.10;99.90;;;;;;5056263;28;19921;-79
2022/06/02 05:09:14;;;;;;;;;;;9.40;99.90;;;;;;5590061;22;19947;-79
2022/06/02 05:11:46;;;;;;;;;;;9.50;99.90;;;;;;5013824;28;19937;-78
2022/06/02 05:14:17;;;;;;;;;;;9.50;99.90;;;;;;5015694;28;19975;-79
2022/06/02 05:16:49;;;;;;;;;;;9.70;99.90;;;;;;5025821;28;19909;-76
2022/06/02 05:19:34;;;;;;;;;;;9.90;99.90;;;;;;5034868;28;19932;-75
2022/06/02 05:22:12;;;;;;;;;;;10.20;99.90;;;;;;5033755;28;19910;-75
2022/06/02 05:24:51;;;;;;;;;;;10.20;99.90;;;;;;5027611;28;19925;-76
2022/06/02 05:27:28;;;;;;;;;;;10.40;99.90;;;;;;5004085;28;20366;-77
2022/06/02 05:30:09;;;;;;;;;;;13.20;99.90;;;;;;5005699;28;19932;-78
2022/06/02 05:32:52;;;;;;;;;;;11.10;99.90;;;;;;4997991;28;19925;-77
2022/06/02 05:35:30;;;;;;;;;;;12.40;99.90;;;;;;5011503;28;20407;-77
2022/06/02 05:38:05;;;;;;;;;;;14.00;99.90;;;;;;4990974;28;20150;-78
2022/06/02 05:40:35;;;;;;;;;;;15.60;99.90;;;;;;5004240;28;19921;-79
2022/06/02 05:43:10;;;;;;;;;;;17.20;99.90;;;;;;5016452;28;19929;-79
2022/06/02 05:45:43;;;;;;;;;;;18.70;99.90;;;;;;5018190;28;19932;-78
2022/06/02 05:48:18;;;;;;;;;;;21.30;99.90;;;;;;5000752;28;19931;-79
2022/06/02 05:50:48;;;;;;;;;;;21.40;99.90;;;;;;5010501;28;20328;-76
2022/06/02 05:53:29;;;;;;;;;;;22.40;99.90;;;;;;5010045;28;19965;-77
2022/06/02 05:56:03;;;;;;;;;;;23.10;99.90;;;;;;5012776;28;20024;-78
2022/06/02 05:58:41;;;;;;;;;;;23.90;99.90;;;;;;5015900;28;20012;-78
2022/06/02 06:01:12;;;;;;;;;;;24.80;99.90;;;;;;4993851;28;20306;-77
2022/06/02 06:03:52;;;;;;;;;;;25.80;99.90;;;;;;5012718;28;20283;-77
2022/06/02 06:06:25;;;;;;;;;;;26.60;99.90;;;;;;4997934;28;20276;-77
2022/06/02 06:09:02;;;;;;;;;;;26.90;99.90;;;;;;5014180;28;20353;-78
2022/06/02 06:11:41;;;;;;;;;;;27.10;99.90;;;;;;5019217;28;20020;-78
2022/06/02 06:14:14;;;;;;;;;;;27.20;99.90;;;;;;5015981;28;20214;-78
2022/06/02 06:16:45;;;;;;;;;;;27.40;99.90;;;;;;5000697;28;19928;-78
2022/06/02 06:19:22;;;;;;;;;;;27.50;99.90;;;;;;5005921;28;20261;-79
2022/06/02 06:21:56;;;;;;;;;;;27.60;99.90;;;;;;4987113;28;20400;-78
2022/06/02 06:24:38;;;;;;;;;;;28.10;99.90;;;;;;4987286;28;20008;-78
2022/06/02 06:27:11;;;;;;;;;;;28.50;99.90;;;;;;5000305;28;19929;-79
2022/06/02 06:29:44;;;;;;;;;;;29.30;99.90;;;;;;5001248;28;19936;-79
2022/06/02 06:32:17;;;;;;;;;;;30.10;99.90;;;;;;5019222;28;19925;-79
2022/06/02 06:34:45;;;;;;;;;;;30.70;99.90;;;;;;5017515;28;19926;-79
2022/06/02 06:37:18;;;;;;;;;;;31.00;99.90;;;;;;5009077;28;19949;-77
2022/06/02 06:39:50;;;;;;;;;;;31.40;99.90;;;;;;5009412;28;20428;-77
2022/06/02 06:42:31;;;;;;;;;;;31.90;99.90;;;;;;4999964;28;19933;-78
2022/06/02 06:45:03;;;;;;;;;;;32.20;99.90;;;;;;5010592;28;19921;-78
2022/06/02 06:51:01;;;;;;;;;;;32.70;99.90;;;;;;5007169;28;19979;-78
2022/06/02 06:53:33;;;;;;;;;;;33.40;99.90;;;;;;4978232;28;19925;-77
2022/06/02 06:56:05;;;;;;;;;;;33.70;99.90;;;;;;5000469;28;19921;-78
2022/06/02 06:58:43;;;;;;;;;;;34.00;99.90;;;;;;4983734;28;20389;-77
2022/06/02 07:01:16;;;;;;;;;;;34.60;99.90;;;;;;4991375;28;19957;-78
2022/06/02 07:03:50;;;;;;;;;;;34.70;99.50;;;;;;5010592;28;19983;-78
2022/06/02 07:06:22;;;;;;;;;;;35.00;96.10;;;;;;5011694;28;19921;-78
2022/06/02 07:08:55;;;;;;;;;;;35.30;93.40;;;;;;5007400;28;19922;-78
2022/06/02 07:14:14;;;;;;;;;;;35.70;93.40;;;;;;5006364;28;20420;-78
2022/06/02 07:16:45;;;;;;;;;;;36.00;90.60;;;;;;5005284;28;20012;-78
2022/06/02 07:19:19;;;;;;;;;;;36.00;87.10;;;;;;5002773;28;19921;-78
2022/06/02 07:21:49;;;;;;;;;;;35.80;85.70;;;;;;5007177;28;19929;-78
2022/06/02 07:24:26;;;;;;;;;;;35.40;86.80;;;;;;5006087;28;20019;-79
2022/06/02 07:26:56;;;;;;;;;;;35.60;84.90;;;;;;5005823;28;19925;-77
2022/06/02 07:29:33;;;;;;;;;;;35.70;86.00;;;;;;5007285;28;19925;-80
2022/06/02 07:32:27;;;;;;;;;;;35.90;86.00;;;;;;5004355;28;19925;-79
2022/06/02 07:35:06;;;;;;;;;;;36.00;84.30;;;;;;5002878;28;19972;-79
2022/06/02 07:37:37;;;;;;;;;;;35.80;80.40;;;;;;5007165;28;19921;-77
2022/06/02 07:40:11;;;;;;;;;;;36.00;78.90;;;;;;5007511;28;19960;-77
2022/06/02 07:43:05;;;;;;;;;;;36.00;76.50;;;;;;5007731;28;20009;-77
2022/06/02 07:45:36;;;;;;;;;;;36.10;80.20;;;;;;4964358;28;19929;-77
2022/06/02 07:48:10;;;;;;;;;;;37.00;77.30;;;;;;5002546;28;20272;-77
2022/06/02 07:50:39;;;;;;;;;;;37.00;77.20;;;;;;5003557;28;19966;-77
2022/06/02 07:53:11;;;;;;;;;;;37.30;74.90;;;;;;5007274;28;20366;-77
2022/06/02 07:55:44;;;;;;;;;;;37.40;70.80;;;;;;5004164;28;20474;-77
2022/06/02 07:58:20;;;;;;;;;;;37.20;74.40;;;;;;5010724;28;20239;-77
2022/06/02 08:00:54;;;;;;;;;;;37.20;72.10;;;;;;5008910;28;19925;-76
2022/06/02 08:03:35;;;;;;;;;;;35.90;70.00;;;;;;5005433;28;19925;-78
2022/06/02 08:06:06;;;;;;;;;;;34.10;69.30;;;;;;4997672;28;19932;-78
2022/06/02 08:08:38;;;;;;;;;;;31.20;74.70;;;;;;5010281;28;19922;-77
2022/06/02 08:11:16;;;;;;;;;;;31.00;72.50;;;;;;5005692;28;19932;-77
2022/06/02 08:13:48;;;;;;;;;;;30.70;75.30;;;;;;5004947;28;19921;-77
2022/06/02 08:16:18;;;;;;;;;;;31.30;76.70;;;;;;5005262;28;20004;-76
2022/06/02 08:18:52;;;;;;;;;;;31.80;75.10;;;;;;5008465;28;20036;-80
2022/06/02 08:21:25;;;;;;;;;;;32.60;75.90;;;;;;5007133;28;19926;-77
2022/06/02 08:24:02;;;;;;;;;;;32.40;74.00;;;;;;5008197;28;19987;-77
2022/06/02 08:26:35;;;;;;;;;;;32.50;74.80;;;;;;5000776;28;19980;-77
2022/06/02 08:29:02;;;;;;;;;;;;;;;;;;5532918;22;19930;-76
2022/06/02 08:31:42;;;;;;;;;;;34.00;74.10;;;;;;5022938;28;20001;-77
2022/06/02 08:34:11;;;;;;;;;;;34.60;72.80;;;;;;5006767;28;19991;-77
2022/06/02 08:36:43;;;;;;;;;;;34.90;71.60;;;;;;5022076;28;20362;-77
2022/06/02 08:39:25;;;;;;;;;;;35.20;71.40;;;;;;5005846;28;19948;-78
2022/06/02 08:42:13;;;;;;;;;;;35.40;70.30;;;;;;5025723;28;19931;-78
2022/06/02 08:44:56;;;;;;;;;;;35.30;66.90;;;;;;5041660;23;20309;-78
2022/06/02 08:47:43;;;;;;;;;;;34.90;67.90;;;;;;5009265;28;20069;-77
2022/06/02 08:50:31;;;;;;;;;;;34.40;66.70;;;;;;5011395;28;20384;-78
2022/06/02 08:53:19;;;;;;;;;;;33.70;66.60;;;;;;5010328;28;19921;-77
2022/06/02 08:56:00;;;;;;;;;;;33.60;67.40;;;;;;5015639;28;19932;-77
2022/06/02 08:58:42;;;;;;;;;;;33.00;67.10;;;;;;5015361;28;19920;-78
2022/06/02 09:01:19;;;;;;;;;;;32.90;68.70;;;;;;5028271;28;19925;-78
2022/06/02 09:04:10;;;;;;;;;;;32.50;64.50;;;;;;5024438;28;19925;-77
2022/06/02 09:06:56;;;;;;;;;;;32.00;66.60;;;;;;5005408;28;20369;-78
2022/06/02 09:09:43;;;;;;;;;;;32.00;69.20;;;;;;5031601;28;20447;-81
2022/06/02 09:12:34;;;;;;;;;;;32.10;69.00;;;;;;5020473;28;19921;-80
2022/06/02 09:15:16;;;;;;;;;;;32.30;67.50;;;;;;4947251;28;19926;-81
2022/06/02 09:17:46;;;;;;;;;;;32.30;66.50;;;;;;5019081;28;19928;-80
2022/06/02 09:20:24;;;;;;;;;;;32.10;68.40;;;;;;5029272;28;19929;-81
2022/06/02 09:23:01;;;;;;;;;;;32.00;62.50;;;;;;5036898;28;19931;-84
2022/06/02 09:25:42;;;;;;;;;;;31.60;63.90;;;;;;5029725;28;20451;-81
2022/06/02 09:28:30;;;;;;;;;;;30.90;62.70;;;;;;5031173;28;20534;-82
2022/06/02 09:31:07;;;;;;;;;;;30.20;63.40;;;;;;5016132;28;19921;-81
2022/06/02 09:33:51;;;;;;;;;;;29.50;64.20;;;;;;5037060;28;19971;-82
2022/06/02 09:36:37;;;;;;;;;;;29.10;66.50;;;;;;5011129;28;19987;-84
2022/06/02 09:39:11;;;;;;;;;;;29.60;69.10;;;;;;5052666;28;19927;-83
2022/06/02 09:41:52;;;;;;;;;;;29.90;66.70;;;;;;5019326;28;20388;-83
2022/06/02 09:44:25;;;;;;;;;;;30.00;67.00;;;;;;5015593;28;19955;-80
2022/06/02 09:47:11;;;;;;;;;;;30.30;64.60;;;;;;5019344;28;20236;-81
2022/06/02 09:50:02;;;;;;;;;;;29.90;65.70;;;;;;5025931;28;20277;-80
2022/06/02 09:52:33;;;;;;;;;;;30.00;65.30;;;;;;5009986;28;19925;-79
2022/06/02 09:55:11;;;;;;;;;;;29.70;64.60;;;;;;5011955;28;19986;-79
2022/06/02 09:57:56;;;;;;;;;;;29.00;65.10;;;;;;5011085;28;19932;-79
2022/06/02 10:00:32;;;;;;;;;;;28.10;65.50;;;;;;5023332;28;19980;-79
2022/06/02 10:03:09;;;;;;;;;;;28.90;66.20;;;;;;5029908;28;19935;-79
2022/06/02 10:05:53;;;;;;;;;;;26.80;66.60;;;;;;5020175;28;19936;-80
2022/06/02 10:08:31;;;;;;;;;;;25.90;67.70;;;;;;5027120;28;20011;-79
2022/06/02 10:11:11;;;;;;;;;;;24.60;68.10;;;;;;5028889;28;19925;-79
2022/06/02 10:13:44;;;;;;;;;;;24.10;70.10;;;;;;5009557;28;19943;-79
2022/06/02 10:16:27;;;;;;;;;;;23.50;71.20;;;;;;5028698;28;19925;-80
2022/06/02 10:19:04;;;;;;;;;;;23.00;72.10;;;;;;5010891;28;19925;-79
2022/06/02 10:21:38;;;;;;;;;;;22.60;72.60;;;;;;5017413;28;19924;-79
2022/06/02 10:24:23;;;;;;;;;;;22.40;74.00;;;;;;5029757;28;20312;-79
2022/06/02 10:27:04;;;;;;;;;;;22.50;74.90;;;;;;5013540;28;19983;-78
2022/06/02 10:29:55;;;;;;;;;;;22.60;74.30;;;;;;5027633;28;20347;-78
2022/06/02 10:32:41;;;;;;;;;;;22.60;74.00;;;;;;5024968;28;19927;-77
2022/06/02 10:35:22;;;;;;;;;;;22.30;74.60;;;;;;5008747;28;19924;-76
2022/06/02 10:38:03;;;;;;;;;;;22.20;75.00;;;;;;5016664;28;19924;-80
2022/06/02 10:40:41;;;;;;;;;;;22.00;75.00;;;;;;5015412;28;19971;-79
2022/06/02 10:43:25;;;;;;;;;;;22.00;75.00;;;;;;5030930;28;19975;-79
2022/06/02 10:46:19;;;;;;;;;;;22.00;75.50;;;;;;5035378;28;20019;-79
2022/06/02 10:49:00;;;;;;;;;;;22.10;75.80;;;;;;5016666;28;19921;-78
2022/06/02 10:51:42;;;;;;;;;;;22.20;76.20;;;;;;5034533;28;20327;-79
2022/06/02 10:54:34;;;;;;;;;;;22.30;76.30;;;;;;4988915;28;19925;-79
2022/06/02 10:57:18;;;;;;;;;;;22.40;77.50;;;;;;5038210;28;19928;-79
2022/06/02 11:00:03;;;;;;;;;;;22.80;75.20;;;;;;5036629;28;19925;-79
2022/06/02 11:02:49;;;;;;;;;;;22.80;76.00;;;;;;5020184;28;19963;-79
2022/06/02 11:05:40;;;;;;;;;;;22.60;76.50;;;;;;5036130;28;19988;-79
2022/06/02 11:08:33;;;;;;;;;;;22.50;75.30;;;;;;5017967;28;19921;-79
2022/06/02 11:11:20;;;;;;;;;;;22.60;75.80;;;;;;5016448;28;19929;-78
2022/06/02 11:14:05;;;;;;;;;;;22.70;76.80;;;;;;5033487;28;19944;-82
2022/06/02 11:16:50;;;;;;;;;;;22.90;76.50;;;;;;5036694;28;19924;-83
2022/06/02 11:19:38;;;;;;;;;;;23.00;77.10;;;;;;5036460;28;20493;-82
2022/06/02 11:22:19;;;;;;;;;;;23.20;76.00;;;;;;5027682;28;19921;-83
2022/06/02 11:25:07;;;;;;;;;;;23.50;76.60;;;;;;5019742;28;19972;-82
2022/06/02 11:27:47;;;;;;;;;;;23.60;76.40;;;;;;5031468;28;20304;-83
2022/06/02 11:30:21;;;;;;;;;;;23.70;75.40;;;;;;5020152;28;19971;-85
2022/06/02 11:33:07;;;;;;;;;;;23.70;75.40;;;;;;5019460;28;19921;-83
2022/06/02 11:35:58;;;;;;;;;;;24.00;75.60;;;;;;5031755;28;20346;-83
2022/06/02 11:38:38;;;;;;;;;;;24.30;75.60;;;;;;5026901;28;19925;-82
2022/06/02 11:41:20;;;;;;;;;;;24.50;74.80;;;;;;5019501;28;19928;-83
2022/06/02 11:43:54;;;;;;;;;;;24.50;76.10;;;;;;5014382;28;19931;-83
2022/06/02 11:46:34;;;;;;;;;;;24.40;73.30;;;;;;5046281;28;19921;-82
2022/06/02 11:49:14;;;;;;;;;;;23.80;72.10;;;;;;5024534;28;19925;-82
2022/06/02 11:51:49;;;;;;;;;;;23.10;73.60;;;;;;5039344;28;19925;-78
2022/06/02 11:54:34;;;;;;;;;;;23.20;76.20;;;;;;5041383;28;19975;-80
2022/06/02 11:57:13;;;;;;;;;;;23.30;75.60;;;;;;5042844;28;19925;-80
2022/06/02 11:59:58;;;;;;;;;;;23.40;77.40;;;;;;5039390;28;19943;-79
2022/06/02 12:02:40;;;;;;;;;;;23.70;77.10;;;;;;5034704;28;19971;-79
2022/06/02 12:05:16;;;;;;;;;;;23.70;76.30;;;;;;5041442;28;19977;-79
2022/06/02 12:08:06;;;;;;;;;;;23.80;73.80;;;;;;5041115;28;20389;-79
2022/06/02 12:10:50;;;;;;;;;;;23.70;75.10;;;;;;5034219;28;19971;-79
2022/06/02 12:13:32;;;;;;;;;;;23.80;73.90;;;;;;5029103;28;19943;-78
2022/06/02 12:16:14;;;;;;;;;;;23.70;74.00;;;;;;5019788;28;19925;-79
2022/06/02 12:18:48;;;;;;;;;;;23.60;73.00;;;;;;5022703;28;19921;-78
2022/06/02 12:21:29;;;;;;;;;;;23.60;74.40;;;;;;5036392;28;19925;-79
2022/06/02 12:24:06;;;;;;;;;;;23.70;74.90;;;;;;5039421;28;19999;-79
2022/06/02 12:26:39;;;;;;;;;;;23.80;74.90;;;;;;5039541;28;19928;-80
2022/06/02 12:29:14;;;;;;;;;;;23.70;74.40;;;;;;5038968;28;20050;-79
2022/06/02 12:32:00;;;;;;;;;;;23.60;73.80;;;;;;5019804;28;20051;-80
2022/06/02 12:34:46;;;;;;;;;;;23.70;73.10;;;;;;5019011;28;19971;-79
2022/06/02 12:37:31;;;;;;;;;;;23.80;72.10;;;;;;5021531;28;19944;-78
2022/06/02 12:40:13;;;;;;;;;;;24.20;74.60;;;;;;4982766;28;19936;-80
2022/06/02 12:43:02;;;;;;;;;;;24.30;74.00;;;;;;5023013;28;19982;-79
2022/06/02 12:45:46;;;;;;;;;;;24.60;73.90;;;;;;5039002;28;19921;-80
2022/06/02 12:48:45;;;;;;;;;;;24.80;74.10;;;;;;5021749;28;20377;-78
2022/06/02 12:51:23;;;;;;;;;;;24.90;73.00;;;;;;4957064;29;20427;-79
2022/06/02 12:54:09;;;;;;;;;;;24.70;73.70;;;;;;5021752;28;19932;-80
2022/06/02 12:56:51;;;;;;;;;;;24.30;72.50;;;;;;5030031;28;19932;-78
2022/06/02 12:59:40;;;;;;;;;;;24.00;72.90;;;;;;5047821;28;19928;-79
2022/06/02 13:02:22;;;;;;;;;;;24.00;74.10;;;;;;5019456;28;20323;-78
2022/06/02 13:05:02;;;;;;;;;;;24.10;73.00;;;;;;5031890;28;19944;-78
2022/06/02 13:07:45;;;;;;;;;;;24.10;72.90;;;;;;4999084;28;19921;-78
2022/06/02 13:10:42;;;;;;;;;;;24.00;72.40;;;;;;4998846;28;19992;-78
2022/06/02 13:13:39;;;;;;;;;;;24.00;72.30;;;;;;4912199;29;20490;-78
2022/06/02 13:16:18;;;;;;;;;;;24.10;69.90;;;;;;5015676;28;19928;-79
2022/06/02 13:18:58;;;;;;;;;;;23.80;71.70;;;;;;5039166;28;19943;-79
2022/06/02 13:21:43;;;;;;;;;;;24.10;72.30;;;;;;5020908;28;20012;-79
2022/06/02 13:24:19;;;;;;;;;;;24.20;71.30;;;;;;5042366;28;19925;-77
2022/06/02 13:27:00;;;;;;;;;;;24.20;70.20;;;;;;5021147;28;20043;-77
2022/06/02 13:29:47;;;;;;;;;;;23.80;71.90;;;;;;5027182;28;19920;-82
2022/06/02 13:32:32;;;;;;;;;;;23.80;72.10;;;;;;5022309;28;20470;-79
2022/06/02 13:35:29;;;;;;;;;;;23.80;72.60;;;;;;5002380;28;19930;-79
2022/06/02 13:38:18;;;;;;;;;;;23.70;72.60;;;;;;5020869;28;19921;-78
2022/06/02 13:40:53;;;;;;;;;;;23.70;71.90;;;;;;4998372;28;19933;-79
2022/06/02 13:43:41;;;;;;;;;;;23.80;72.90;;;;;;5020635;28;19925;-80
2022/06/02 13:46:28;;;;;;;;;;;24.00;72.50;;;;;;5016138;28;19948;-79
2022/06/02 13:49:13;;;;;;;;;;;24.00;69.70;;;;;;5030737;28;19927;-79
2022/06/02 13:51:55;;;;;;;;;;;24.00;69.30;;;;;;5035335;28;20389;-79
2022/06/02 13:57:46;;;;;;;;;;;24.10;70.80;;;;;;5019581;28;19948;-77
2022/06/02 14:00:22;;;;;;;;;;;24.60;72.00;;;;;;5014206;28;20027;-77
2022/06/02 14:03:07;;;;;;;;;;;24.60;70.30;;;;;;5029951;28;19921;-77
2022/06/02 14:05:52;;;;;;;;;;;24.50;70.90;;;;;;5017117;28;19927;-77
2022/06/02 14:08:40;;;;;;;;;;;24.60;72.20;;;;;;5035156;28;20015;-78
2022/06/02 14:11:17;;;;;;;;;;;24.80;70.40;;;;;;4984292;28;20033;-77
2022/06/02 14:14:05;;;;;;;;;;;24.70;70.70;;;;;;5017794;28;20046;-77
2022/06/02 14:16:45;;;;;;;;;;;24.70;71.20;;;;;;5013269;28;20351;-77
2022/06/02 14:19:19;;;;;;;;;;;24.60;71.90;;;;;;5014938;28;20450;-77
2022/06/02 14:21:52;;;;;;;;;;;24.60;69.80;;;;;;5015032;28;19932;-77
2022/06/02 14:24:24;;;;;;;;;;;24.60;70.00;;;;;;5015220;28;20296;-77
2022/06/02 14:26:58;;;;;;;;;;;24.70;70.30;;;;;;5015468;28;19970;-77
2022/06/02 14:29:30;;;;;;;;;;;24.90;68.30;;;;;;4995977;28;19995;-77
2022/06/02 14:32:04;;;;;;;;;;;24.70;69.10;;;;;;4995420;28;20033;-77
2022/06/02 14:34:38;;;;;;;;;;;24.70;69.00;;;;;;5008090;28;20024;-78
2022/06/02 14:37:07;;;;;;;;;;;24.70;69.80;;;;;;5011277;28;20397;-78
2022/06/02 14:39:40;;;;;;;;;;;24.20;68.00;;;;;;5030539;28;20296;-77
2022/06/02 14:43:03;;;;;;;;;;;24.20;68.40;;;;;;5032618;28;19955;-76
2022/06/02 14:45:15;;;;;;;;;;;24.10;69.60;;;;;;5013812;28;19931;-76
2022/06/02 14:47:47;;;;;;;;;;;24.30;70.30;;;;;;5014114;28;20395;-76
2022/06/02 14:50:21;;;;;;;;;;;24.10;68.90;;;;;;5031304;28;19957;-78
2022/06/02 14:53:08;;;;;;;;;;;23.80;69.40;;;;;;5010041;28;20003;-78
2022/06/02 14:55:40;;;;;;;;;;;23.70;70.40;;;;;;5032921;28;19925;-78
2022/06/02 14:58:16;;;;;;;;;;;23.70;70.80;;;;;;5023518;28;20379;-78
2022/06/02 15:00:50;;;;;;;;;;;23.80;69.90;;;;;;5038044;28;20276;-78
2022/06/02 15:03:35;;;;;;;;;;;23.80;70.70;;;;;;5032875;28;19929;-78
2022/06/02 15:06:09;;;;;;;;;;;24.20;70.40;;;;;;5014940;28;19929;-78
2022/06/02 15:08:57;;;;;;;;;;;23.70;70.30;;;;;;5019313;28;19932;-78
2022/06/02 15:11:32;;;;;;;;;;;23.60;70.20;;;;;;5017096;28;19931;-78
2022/06/02 15:14:05;;;;;;;;;;;23.60;71.20;;;;;;5015570;28;19921;-78
2022/06/02 15:16:53;;;;;;;;;;;23.70;70.50;;;;;;5015189;28;19968;-78
2022/06/02 15:19:20;;;;;;;;;;;;;;;;;;5026619;28;19928;-77
2022/06/02 15:21:56;;;;;;;;;;;23.70;70.20;;;;;;5029897;28;20418;-77
2022/06/02 15:24:29;;;;;;;;;;;23.60;70.50;;;;;;5035624;28;20034;-78
2022/06/02 15:27:19;;;;;;;;;;;23.50;70.30;;;;;;5020041;28;19948;-80
2022/06/02 15:29:59;;;;;;;;;;;23.60;70.30;;;;;;5005057;28;19916;-78
2022/06/02 15:32:56;;;;;;;;;;;23.50;70.10;;;;;;5036049;28;19928;-78
2022/06/02 15:35:42;;;;;;;;;;;23.30;70.00;;;;;;5035684;28;20289;-78
2022/06/02 15:38:36;;;;;;;;;;;23.30;71.00;;;;;;4990773;28;19936;-78
2022/06/02 15:41:28;;;;;;;;;;;23.00;69.30;;;;;;5040585;28;20367;-78
2022/06/02 15:44:16;;;;;;;;;;;23.00;69.90;;;;;;5001451;28;19936;-78
2022/06/02 15:47:04;;;;;;;;;;;23.00;70.30;;;;;;5036154;28;19968;-78